sensor_id;sensor_type;location;lat;lon;timestamp;P1;durP1;ratioP1;P2;durP2;ratioP2
3329;SDS011;1677;49.576;10.990;2023-04-03T00:01:29;2.23;;;2.00;;
3329;SDS011;1677;49.576;10.990;2023-04-03T00:03:55;2.47;;;1.97;;
3329;SDS011;1677;49.576;10.990;2023-04-03T00:06:21;3.60;;;1.90;;
3329;SDS011;1677;49.576;10.990;2023-04-03T00:08:48;2.22;;;2.03;;
3329;SDS011;1677;49.576;10.990;2023-04-03T00:11:14;2.05;;;1.85;;
3329;SDS011;1677;49.576;10.990;2023-04-03T00:13:41;5.25;;;1.83;;
3329;SDS011;1677;49.576;10.990;2023-04-03T00:16:07;3.65;;;2.13;;
3329;SDS011;1677;49.576;10.990;2023-04-03T00:18:35;2.15;;;1.95;;
3329;SDS011;1677;49.576;10.990;2023-04-03T00:21:01;2.70;;;1.95;;
3329;SDS011;1677;49.576;10.990;2023-04-03T00:23:27;2.30;;;2.10;;
3329;SDS011;1677;49.576;10.990;2023-04-03T00:25:52;2.40;;;2.20;;
3329;SDS011;1677;49.576;10.990;2023-04-03T00:28:18;2.30;;;1.83;;
3329;SDS011;1677;49.576;10.990;2023-04-03T00:30:44;2.70;;;1.90;;
3329;SDS011;1677;49.576;10.990;2023-04-03T00:33:11;2.67;;;2.37;;
3329;SDS011;1677;49.576;10.990;2023-04-03T00:35:38;1.90;;;1.70;;
3329;SDS011;1677;49.576;10.990;2023-04-03T00:38:04;2.38;;;1.90;;
3329;SDS011;1677;49.576;10.990;2023-04-03T00:40:33;1.90;;;1.70;;
3329;SDS011;1677;49.576;10.990;2023-04-03T00:43:05;2.92;;;1.80;;
3329;SDS011;1677;49.576;10.990;2023-04-03T00:45:39;2.50;;;2.05;;
3329;SDS011;1677;49.576;10.990;2023-04-03T00:48:06;1.70;;;1.60;;
3329;SDS011;1677;49.576;10.990;2023-04-03T00:50:38;1.92;;;1.73;;
3329;SDS011;1677;49.576;10.990;2023-04-03T00:53:06;3.17;;;1.88;;
3329;SDS011;1677;49.576;10.990;2023-04-03T00:55:33;3.10;;;2.28;;
3329;SDS011;1677;49.576;10.990;2023-04-03T00:58:01;3.10;;;2.30;;
3329;SDS011;1677;49.576;10.990;2023-04-03T01:00:27;4.10;;;1.88;;
3329;SDS011;1677;49.576;10.990;2023-04-03T01:02:53;2.65;;;2.05;;
3329;SDS011;1677;49.576;10.990;2023-04-03T01:05:19;2.53;;;2.27;;
3329;SDS011;1677;49.576;10.990;2023-04-03T01:07:54;2.90;;;2.70;;
3329;SDS011;1677;49.576;10.990;2023-04-03T01:10:21;1.80;;;1.70;;
3329;SDS011;1677;49.576;10.990;2023-04-03T01:12:48;1.85;;;1.75;;
3329;SDS011;1677;49.576;10.990;2023-04-03T01:15:22;1.70;;;1.60;;
3329;SDS011;1677;49.576;10.990;2023-04-03T01:17:53;2.33;;;2.13;;
3329;SDS011;1677;49.576;10.990;2023-04-03T01:25:28;2.40;;;2.20;;
3329;SDS011;1677;49.576;10.990;2023-04-03T01:27:54;1.70;;;1.60;;
3329;SDS011;1677;49.576;10.990;2023-04-03T01:30:21;5.43;;;2.40;;
3329;SDS011;1677;49.576;10.990;2023-04-03T01:32:49;2.50;;;1.70;;
3329;SDS011;1677;49.576;10.990;2023-04-03T01:35:15;2.97;;;2.73;;
3329;SDS011;1677;49.576;10.990;2023-04-03T01:37:41;2.40;;;2.07;;
3329;SDS011;1677;49.576;10.990;2023-04-03T01:40:06;1.90;;;1.70;;
3329;SDS011;1677;49.576;10.990;2023-04-03T01:42:33;2.95;;;1.98;;
3329;SDS011;1677;49.576;10.990;2023-04-03T01:44:58;4.57;;;2.43;;
3329;SDS011;1677;49.576;10.990;2023-04-03T01:47:24;5.13;;;2.20;;
3329;SDS011;1677;49.576;10.990;2023-04-03T01:49:49;1.70;;;1.60;;
3329;SDS011;1677;49.576;10.990;2023-04-03T01:52:15;1.47;;;1.33;;
3329;SDS011;1677;49.576;10.990;2023-04-03T01:54:40;2.20;;;2.00;;
3329;SDS011;1677;49.576;10.990;2023-04-03T01:57:06;2.07;;;1.87;;
3329;SDS011;1677;49.576;10.990;2023-04-03T01:59:32;2.33;;;2.10;;
3329;SDS011;1677;49.576;10.990;2023-04-03T02:01:57;3.37;;;2.13;;
3329;SDS011;1677;49.576;10.990;2023-04-03T02:04:23;2.33;;;1.87;;
3329;SDS011;1677;49.576;10.990;2023-04-03T02:06:48;2.07;;;1.93;;
3329;SDS011;1677;49.576;10.990;2023-04-03T02:09:14;2.73;;;1.93;;
3329;SDS011;1677;49.576;10.990;2023-04-03T02:11:40;2.20;;;1.80;;
3329;SDS011;1677;49.576;10.990;2023-04-03T02:14:05;2.60;;;2.40;;
3329;SDS011;1677;49.576;10.990;2023-04-03T02:16:31;2.50;;;2.30;;
3329;SDS011;1677;49.576;10.990;2023-04-03T02:18:57;1.90;;;1.70;;
3329;SDS011;1677;49.576;10.990;2023-04-03T02:21:23;1.90;;;1.70;;
3329;SDS011;1677;49.576;10.990;2023-04-03T02:23:49;2.50;;;1.97;;
3329;SDS011;1677;49.576;10.990;2023-04-03T02:26:15;1.60;;;1.50;;
3329;SDS011;1677;49.576;10.990;2023-04-03T02:28:41;2.38;;;1.90;;
3329;SDS011;1677;49.576;10.990;2023-04-03T02:31:08;2.83;;;1.60;;
3329;SDS011;1677;49.576;10.990;2023-04-03T02:33:35;2.80;;;2.53;;
3329;SDS011;1677;49.576;10.990;2023-04-03T02:36:02;2.50;;;1.80;;
3329;SDS011;1677;49.576;10.990;2023-04-03T02:38:29;2.40;;;2.05;;
3329;SDS011;1677;49.576;10.990;2023-04-03T02:41:02;1.93;;;1.83;;
3329;SDS011;1677;49.576;10.990;2023-04-03T02:43:28;3.15;;;2.10;;
3329;SDS011;1677;49.576;10.990;2023-04-03T02:45:54;1.83;;;1.63;;
3329;SDS011;1677;49.576;10.990;2023-04-03T02:48:20;4.00;;;1.83;;
3329;SDS011;1677;49.576;10.990;2023-04-03T02:50:45;2.93;;;2.40;;
3329;SDS011;1677;49.576;10.990;2023-04-03T02:53:11;4.50;;;2.03;;
3329;SDS011;1677;49.576;10.990;2023-04-03T02:55:36;2.10;;;1.83;;
3329;SDS011;1677;49.576;10.990;2023-04-03T02:58:02;3.00;;;1.97;;
3329;SDS011;1677;49.576;10.990;2023-04-03T03:00:28;2.70;;;1.77;;
3329;SDS011;1677;49.576;10.990;2023-04-03T03:02:54;3.28;;;1.80;;
3329;SDS011;1677;49.576;10.990;2023-04-03T03:05:20;3.63;;;2.10;;
3329;SDS011;1677;49.576;10.990;2023-04-03T03:07:45;2.00;;;1.80;;
3329;SDS011;1677;49.576;10.990;2023-04-03T03:10:11;2.80;;;1.93;;
3329;SDS011;1677;49.576;10.990;2023-04-03T03:12:36;2.50;;;2.30;;
3329;SDS011;1677;49.576;10.990;2023-04-03T03:15:02;4.23;;;2.47;;
3329;SDS011;1677;49.576;10.990;2023-04-03T03:17:28;2.97;;;2.33;;
3329;SDS011;1677;49.576;10.990;2023-04-03T03:19:53;3.53;;;2.20;;
3329;SDS011;1677;49.576;10.990;2023-04-03T03:22:19;4.30;;;2.47;;
3329;SDS011;1677;49.576;10.990;2023-04-03T03:24:45;2.90;;;2.60;;
3329;SDS011;1677;49.576;10.990;2023-04-03T03:27:10;2.60;;;2.40;;
3329;SDS011;1677;49.576;10.990;2023-04-03T03:29:37;2.90;;;2.60;;
3329;SDS011;1677;49.576;10.990;2023-04-03T03:32:02;4.03;;;2.80;;
3329;SDS011;1677;49.576;10.990;2023-04-03T03:34:28;2.63;;;2.10;;
3329;SDS011;1677;49.576;10.990;2023-04-03T03:36:54;4.20;;;2.33;;
3329;SDS011;1677;49.576;10.990;2023-04-03T03:39:20;4.53;;;2.85;;
3329;SDS011;1677;49.576;10.990;2023-04-03T03:41:46;3.80;;;2.90;;
3329;SDS011;1677;49.576;10.990;2023-04-03T03:44:12;4.97;;;3.03;;
3329;SDS011;1677;49.576;10.990;2023-04-03T03:46:38;4.10;;;3.00;;
3329;SDS011;1677;49.576;10.990;2023-04-03T03:49:03;3.67;;;2.60;;
3329;SDS011;1677;49.576;10.990;2023-04-03T03:51:29;2.77;;;2.57;;
3329;SDS011;1677;49.576;10.990;2023-04-03T03:53:55;3.40;;;3.10;;
3329;SDS011;1677;49.576;10.990;2023-04-03T03:56:20;5.23;;;3.40;;
3329;SDS011;1677;49.576;10.990;2023-04-03T03:58:46;5.83;;;2.40;;
3329;SDS011;1677;49.576;10.990;2023-04-03T04:01:22;3.90;;;3.30;;
3329;SDS011;1677;49.576;10.990;2023-04-03T04:04:07;11.82;;;3.25;;
3329;SDS011;1677;49.576;10.990;2023-04-03T04:06:33;8.97;;;3.70;;
3329;SDS011;1677;49.576;10.990;2023-04-03T04:08:59;3.30;;;3.00;;
3329;SDS011;1677;49.576;10.990;2023-04-03T04:11:25;4.90;;;2.80;;
3329;SDS011;1677;49.576;10.990;2023-04-03T04:13:52;3.63;;;2.83;;
3329;SDS011;1677;49.576;10.990;2023-04-03T04:16:18;6.03;;;3.20;;
3329;SDS011;1677;49.576;10.990;2023-04-03T04:18:43;4.70;;;3.37;;
3329;SDS011;1677;49.576;10.990;2023-04-03T04:21:09;3.33;;;2.97;;
3329;SDS011;1677;49.576;10.990;2023-04-03T04:23:34;3.43;;;3.13;;
3329;SDS011;1677;49.576;10.990;2023-04-03T04:26:00;4.50;;;2.40;;
3329;SDS011;1677;49.576;10.990;2023-04-03T04:28:26;3.90;;;2.60;;
3329;SDS011;1677;49.576;10.990;2023-04-03T04:30:51;4.43;;;3.60;;
3329;SDS011;1677;49.576;10.990;2023-04-03T04:33:17;3.10;;;2.50;;
3329;SDS011;1677;49.576;10.990;2023-04-03T04:35:42;3.83;;;3.33;;
3329;SDS011;1677;49.576;10.990;2023-04-03T04:38:08;3.90;;;3.00;;
3329;SDS011;1677;49.576;10.990;2023-04-03T04:40:34;4.07;;;3.67;;
3329;SDS011;1677;49.576;10.990;2023-04-03T04:43:00;4.53;;;3.20;;
3329;SDS011;1677;49.576;10.990;2023-04-03T04:45:25;9.93;;;3.00;;
3329;SDS011;1677;49.576;10.990;2023-04-03T04:47:51;3.00;;;2.80;;
3329;SDS011;1677;49.576;10.990;2023-04-03T04:50:19;4.93;;;3.25;;
3329;SDS011;1677;49.576;10.990;2023-04-03T04:52:45;4.40;;;2.70;;
3329;SDS011;1677;49.576;10.990;2023-04-03T04:55:10;3.33;;;3.03;;
3329;SDS011;1677;49.576;10.990;2023-04-03T04:57:36;3.30;;;2.70;;
3329;SDS011;1677;49.576;10.990;2023-04-03T05:00:03;4.47;;;3.03;;
3329;SDS011;1677;49.576;10.990;2023-04-03T05:02:29;4.97;;;2.92;;
3329;SDS011;1677;49.576;10.990;2023-04-03T05:04:55;12.30;;;3.70;;
3329;SDS011;1677;49.576;10.990;2023-04-03T05:07:21;2.97;;;2.77;;
3329;SDS011;1677;49.576;10.990;2023-04-03T05:09:47;3.70;;;3.22;;
3329;SDS011;1677;49.576;10.990;2023-04-03T05:12:13;4.47;;;2.90;;
3329;SDS011;1677;49.576;10.990;2023-04-03T05:14:38;7.30;;;2.80;;
3329;SDS011;1677;49.576;10.990;2023-04-03T05:17:04;3.73;;;2.93;;
3329;SDS011;1677;49.576;10.990;2023-04-03T05:19:30;6.60;;;3.17;;
3329;SDS011;1677;49.576;10.990;2023-04-03T05:21:55;3.03;;;2.77;;
3329;SDS011;1677;49.576;10.990;2023-04-03T05:24:21;4.43;;;3.17;;
3329;SDS011;1677;49.576;10.990;2023-04-03T05:26:46;3.43;;;3.13;;
3329;SDS011;1677;49.576;10.990;2023-04-03T05:29:12;6.80;;;2.60;;
3329;SDS011;1677;49.576;10.990;2023-04-03T05:31:38;3.83;;;2.43;;
3329;SDS011;1677;49.576;10.990;2023-04-03T05:34:03;6.30;;;3.13;;
3329;SDS011;1677;49.576;10.990;2023-04-03T05:36:29;2.97;;;2.40;;
3329;SDS011;1677;49.576;10.990;2023-04-03T05:38:54;4.80;;;3.37;;
3329;SDS011;1677;49.576;10.990;2023-04-03T05:41:21;2.35;;;2.15;;
3329;SDS011;1677;49.576;10.990;2023-04-03T05:43:47;8.20;;;3.60;;
3329;SDS011;1677;49.576;10.990;2023-04-03T05:46:13;4.27;;;3.07;;
3329;SDS011;1677;49.576;10.990;2023-04-03T05:48:41;2.67;;;2.47;;
3329;SDS011;1677;49.576;10.990;2023-04-03T05:51:09;2.92;;;2.60;;
3329;SDS011;1677;49.576;10.990;2023-04-03T05:53:52;2.92;;;2.72;;
3329;SDS011;1677;49.576;10.990;2023-04-03T05:56:23;4.95;;;2.60;;
3329;SDS011;1677;49.576;10.990;2023-04-03T05:58:49;2.80;;;2.30;;
3329;SDS011;1677;49.576;10.990;2023-04-03T06:01:15;2.63;;;2.10;;
3329;SDS011;1677;49.576;10.990;2023-04-03T06:03:41;10.68;;;2.72;;
3329;SDS011;1677;49.576;10.990;2023-04-03T06:06:06;3.13;;;2.60;;
3329;SDS011;1677;49.576;10.990;2023-04-03T06:08:32;4.25;;;2.67;;
3329;SDS011;1677;49.576;10.990;2023-04-03T06:10:58;6.50;;;2.87;;
3329;SDS011;1677;49.576;10.990;2023-04-03T06:13:24;4.03;;;1.93;;
3329;SDS011;1677;49.576;10.990;2023-04-03T06:15:50;3.20;;;2.50;;
3329;SDS011;1677;49.576;10.990;2023-04-03T06:18:15;4.50;;;2.80;;
3329;SDS011;1677;49.576;10.990;2023-04-03T06:20:41;3.80;;;2.60;;
3329;SDS011;1677;49.576;10.990;2023-04-03T06:23:06;5.43;;;2.57;;
3329;SDS011;1677;49.576;10.990;2023-04-03T06:25:32;3.37;;;2.40;;
3329;SDS011;1677;49.576;10.990;2023-04-03T06:27:58;4.10;;;2.85;;
3329;SDS011;1677;49.576;10.990;2023-04-03T06:30:24;3.20;;;2.30;;
3329;SDS011;1677;49.576;10.990;2023-04-03T06:32:50;4.70;;;2.97;;
3329;SDS011;1677;49.576;10.990;2023-04-03T06:35:16;3.30;;;2.60;;
3329;SDS011;1677;49.576;10.990;2023-04-03T06:37:41;4.07;;;2.67;;
3329;SDS011;1677;49.576;10.990;2023-04-03T06:40:09;5.07;;;3.20;;
3329;SDS011;1677;49.576;10.990;2023-04-03T06:42:45;6.25;;;3.40;;
3329;SDS011;1677;49.576;10.990;2023-04-03T06:45:11;3.47;;;2.58;;
3329;SDS011;1677;49.576;10.990;2023-04-03T06:47:37;3.05;;;2.75;;
3329;SDS011;1677;49.576;10.990;2023-04-03T06:50:02;6.40;;;3.20;;
3329;SDS011;1677;49.576;10.990;2023-04-03T06:52:28;3.60;;;2.47;;
3329;SDS011;1677;49.576;10.990;2023-04-03T06:54:54;6.00;;;3.53;;
3329;SDS011;1677;49.576;10.990;2023-04-03T06:57:22;3.80;;;2.65;;
3329;SDS011;1677;49.576;10.990;2023-04-03T06:59:49;3.60;;;3.13;;
3329;SDS011;1677;49.576;10.990;2023-04-03T07:02:15;7.63;;;3.20;;
3329;SDS011;1677;49.576;10.990;2023-04-03T07:04:40;3.20;;;2.90;;
3329;SDS011;1677;49.576;10.990;2023-04-03T07:07:06;9.50;;;2.97;;
3329;SDS011;1677;49.576;10.990;2023-04-03T07:09:32;4.15;;;3.08;;
3329;SDS011;1677;49.576;10.990;2023-04-03T07:11:58;3.03;;;2.43;;
3329;SDS011;1677;49.576;10.990;2023-04-03T07:14:23;3.50;;;2.90;;
3329;SDS011;1677;49.576;10.990;2023-04-03T07:16:49;6.83;;;2.90;;
3329;SDS011;1677;49.576;10.990;2023-04-03T07:19:15;3.58;;;2.58;;
3329;SDS011;1677;49.576;10.990;2023-04-03T07:21:43;3.30;;;2.70;;
3329;SDS011;1677;49.576;10.990;2023-04-03T07:24:08;6.50;;;3.10;;
3329;SDS011;1677;49.576;10.990;2023-04-03T07:26:34;5.33;;;4.30;;
3329;SDS011;1677;49.576;10.990;2023-04-03T07:29:00;5.73;;;2.97;;
3329;SDS011;1677;49.576;10.990;2023-04-03T07:31:25;4.20;;;3.20;;
3329;SDS011;1677;49.576;10.990;2023-04-03T07:33:51;3.30;;;2.90;;
3329;SDS011;1677;49.576;10.990;2023-04-03T07:36:18;3.00;;;2.70;;
3329;SDS011;1677;49.576;10.990;2023-04-03T07:38:45;4.03;;;2.65;;
3329;SDS011;1677;49.576;10.990;2023-04-03T07:41:14;3.37;;;2.87;;
3329;SDS011;1677;49.576;10.990;2023-04-03T07:43:42;3.00;;;2.58;;
3329;SDS011;1677;49.576;10.990;2023-04-03T07:46:08;3.07;;;2.77;;
3329;SDS011;1677;49.576;10.990;2023-04-03T07:48:34;3.27;;;2.70;;
3329;SDS011;1677;49.576;10.990;2023-04-03T07:51:00;4.63;;;3.08;;
3329;SDS011;1677;49.576;10.990;2023-04-03T07:53:27;2.75;;;2.55;;
3329;SDS011;1677;49.576;10.990;2023-04-03T07:55:53;5.83;;;2.87;;
3329;SDS011;1677;49.576;10.990;2023-04-03T07:58:21;4.45;;;2.75;;
3329;SDS011;1677;49.576;10.990;2023-04-03T08:00:46;5.57;;;3.00;;
3329;SDS011;1677;49.576;10.990;2023-04-03T08:03:13;5.85;;;2.85;;
3329;SDS011;1677;49.576;10.990;2023-04-03T08:05:41;5.72;;;2.90;;
3329;SDS011;1677;49.576;10.990;2023-04-03T08:08:09;4.55;;;2.50;;
3329;SDS011;1677;49.576;10.990;2023-04-03T08:10:37;4.82;;;3.15;;
3329;SDS011;1677;49.576;10.990;2023-04-03T08:13:03;2.73;;;2.33;;
3329;SDS011;1677;49.576;10.990;2023-04-03T08:15:29;7.03;;;3.85;;
3329;SDS011;1677;49.576;10.990;2023-04-03T08:17:55;2.30;;;2.05;;
3329;SDS011;1677;49.576;10.990;2023-04-03T08:20:21;3.27;;;2.87;;
3329;SDS011;1677;49.576;10.990;2023-04-03T08:22:47;4.00;;;2.40;;
3329;SDS011;1677;49.576;10.990;2023-04-03T08:25:12;3.10;;;2.57;;
3329;SDS011;1677;49.576;10.990;2023-04-03T08:27:38;3.23;;;2.50;;
3329;SDS011;1677;49.576;10.990;2023-04-03T08:30:04;3.80;;;2.60;;
3329;SDS011;1677;49.576;10.990;2023-04-03T08:32:32;5.95;;;2.42;;
3329;SDS011;1677;49.576;10.990;2023-04-03T08:34:58;2.77;;;2.27;;
3329;SDS011;1677;49.576;10.990;2023-04-03T08:37:24;2.80;;;2.33;;
3329;SDS011;1677;49.576;10.990;2023-04-03T08:39:49;2.17;;;1.97;;
3329;SDS011;1677;49.576;10.990;2023-04-03T08:42:18;2.87;;;2.60;;
3329;SDS011;1677;49.576;10.990;2023-04-03T08:44:51;3.93;;;2.20;;
3329;SDS011;1677;49.576;10.990;2023-04-03T08:47:47;2.20;;;2.00;;
3329;SDS011;1677;49.576;10.990;2023-04-03T08:50:41;2.80;;;2.07;;
3329;SDS011;1677;49.576;10.990;2023-04-03T08:53:12;3.63;;;2.50;;
3329;SDS011;1677;49.576;10.990;2023-04-03T08:55:52;3.50;;;2.57;;
3329;SDS011;1677;49.576;10.990;2023-04-03T08:58:23;2.50;;;2.20;;
3329;SDS011;1677;49.576;10.990;2023-04-03T09:03:28;3.37;;;2.10;;
3329;SDS011;1677;49.576;10.990;2023-04-03T09:06:16;3.40;;;2.17;;
3329;SDS011;1677;49.576;10.990;2023-04-03T09:11:45;2.23;;;1.40;;
3329;SDS011;1677;49.576;10.990;2023-04-03T09:14:33;6.13;;;2.17;;
3329;SDS011;1677;49.576;10.990;2023-04-03T09:17:09;2.30;;;1.80;;
3329;SDS011;1677;49.576;10.990;2023-04-03T09:19:54;2.80;;;2.00;;
3329;SDS011;1677;49.576;10.990;2023-04-03T09:22:28;2.60;;;2.23;;
3329;SDS011;1677;49.576;10.990;2023-04-03T09:25:12;3.60;;;1.60;;
3329;SDS011;1677;49.576;10.990;2023-04-03T09:27:51;2.17;;;1.50;;
3329;SDS011;1677;49.576;10.990;2023-04-03T09:30:19;2.67;;;2.13;;
3329;SDS011;1677;49.576;10.990;2023-04-03T09:32:48;3.00;;;2.07;;
3329;SDS011;1677;49.576;10.990;2023-04-03T09:35:26;2.80;;;2.13;;
3329;SDS011;1677;49.576;10.990;2023-04-03T09:38:00;2.45;;;1.90;;
3329;SDS011;1677;49.576;10.990;2023-04-03T09:40:42;2.13;;;1.90;;
3329;SDS011;1677;49.576;10.990;2023-04-03T09:45:42;3.50;;;2.20;;
3329;SDS011;1677;49.576;10.990;2023-04-03T09:48:15;7.38;;;2.13;;
3329;SDS011;1677;49.576;10.990;2023-04-03T09:55:55;2.25;;;2.00;;
3329;SDS011;1677;49.576;10.990;2023-04-03T09:58:28;4.07;;;2.90;;
3329;SDS011;1677;49.576;10.990;2023-04-03T10:00:55;3.42;;;2.60;;
3329;SDS011;1677;49.576;10.990;2023-04-03T10:03:29;2.47;;;2.10;;
3329;SDS011;1677;49.576;10.990;2023-04-03T10:05:57;2.85;;;2.40;;
3329;SDS011;1677;49.576;10.990;2023-04-03T10:11:10;2.63;;;2.15;;
3329;SDS011;1677;49.576;10.990;2023-04-03T10:13:52;3.85;;;2.05;;
3329;SDS011;1677;49.576;10.990;2023-04-03T10:16:44;2.57;;;2.00;;
3329;SDS011;1677;49.576;10.990;2023-04-03T10:21:57;4.97;;;1.57;;
3329;SDS011;1677;49.576;10.990;2023-04-03T10:30:53;3.10;;;2.03;;
3329;SDS011;1677;49.576;10.990;2023-04-03T10:33:34;4.37;;;3.30;;
3329;SDS011;1677;49.576;10.990;2023-04-03T10:47:07;2.90;;;2.30;;
3329;SDS011;1677;49.576;10.990;2023-04-03T10:49:47;2.63;;;2.10;;
3329;SDS011;1677;49.576;10.990;2023-04-03T10:57:56;1.87;;;1.77;;
3329;SDS011;1677;49.576;10.990;2023-04-03T11:00:38;3.47;;;2.63;;
3329;SDS011;1677;49.576;10.990;2023-04-03T11:03:41;4.30;;;2.43;;
3329;SDS011;1677;49.576;10.990;2023-04-03T11:06:06;3.27;;;2.20;;
3329;SDS011;1677;49.576;10.990;2023-04-03T11:11:20;2.80;;;2.27;;
3329;SDS011;1677;49.576;10.990;2023-04-03T11:14:03;3.43;;;2.10;;
3329;SDS011;1677;49.576;10.990;2023-04-03T11:16:46;6.33;;;2.50;;
3329;SDS011;1677;49.576;10.990;2023-04-03T11:19:17;3.10;;;2.20;;
3329;SDS011;1677;49.576;10.990;2023-04-03T11:21:51;2.50;;;1.77;;
3329;SDS011;1677;49.576;10.990;2023-04-03T11:24:37;3.90;;;2.30;;
3329;SDS011;1677;49.576;10.990;2023-04-03T11:27:08;2.43;;;2.23;;
3329;SDS011;1677;49.576;10.990;2023-04-03T11:29:42;4.23;;;2.53;;
3329;SDS011;1677;49.576;10.990;2023-04-03T11:34:55;2.33;;;2.03;;
3329;SDS011;1677;49.576;10.990;2023-04-03T11:37:34;2.13;;;1.77;;
3329;SDS011;1677;49.576;10.990;2023-04-03T11:40:04;2.33;;;1.53;;
3329;SDS011;1677;49.576;10.990;2023-04-03T11:42:39;2.93;;;2.10;;
3329;SDS011;1677;49.576;10.990;2023-04-03T11:45:17;3.20;;;1.73;;
3329;SDS011;1677;49.576;10.990;2023-04-03T11:50:47;2.60;;;1.57;;
3329;SDS011;1677;49.576;10.990;2023-04-03T12:05:50;4.50;;;2.37;;
3329;SDS011;1677;49.576;10.990;2023-04-03T12:29:17;2.07;;;1.77;;
3329;SDS011;1677;49.576;10.990;2023-04-03T12:31:50;4.30;;;2.50;;
3329;SDS011;1677;49.576;10.990;2023-04-03T12:34:45;2.47;;;2.10;;
3329;SDS011;1677;49.576;10.990;2023-04-03T12:46:02;1.98;;;1.80;;
3329;SDS011;1677;49.576;10.990;2023-04-03T12:48:32;2.20;;;1.80;;
3329;SDS011;1677;49.576;10.990;2023-04-03T12:51:03;2.33;;;1.80;;
3329;SDS011;1677;49.576;10.990;2023-04-03T12:53:36;2.15;;;2.00;;
3329;SDS011;1677;49.576;10.990;2023-04-03T12:56:20;4.57;;;1.95;;
3329;SDS011;1677;49.576;10.990;2023-04-03T12:58:54;1.80;;;1.70;;
3329;SDS011;1677;49.576;10.990;2023-04-03T13:01:37;5.85;;;2.13;;
3329;SDS011;1677;49.576;10.990;2023-04-03T13:04:02;1.93;;;1.83;;
3329;SDS011;1677;49.576;10.990;2023-04-03T13:06:32;2.38;;;2.00;;
3329;SDS011;1677;49.576;10.990;2023-04-03T13:09:14;2.13;;;1.90;;
3329;SDS011;1677;49.576;10.990;2023-04-03T13:11:47;1.80;;;1.70;;
3329;SDS011;1677;49.576;10.990;2023-04-03T13:14:23;2.50;;;2.30;;
3329;SDS011;1677;49.576;10.990;2023-04-03T13:19:22;2.15;;;1.77;;
3329;SDS011;1677;49.576;10.990;2023-04-03T13:21:50;2.00;;;1.80;;
3329;SDS011;1677;49.576;10.990;2023-04-03T13:24:29;2.05;;;1.80;;
3329;SDS011;1677;49.576;10.990;2023-04-03T13:26:57;1.95;;;1.80;;
3329;SDS011;1677;49.576;10.990;2023-04-03T13:29:28;2.23;;;2.00;;
3329;SDS011;1677;49.576;10.990;2023-04-03T13:31:56;2.60;;;1.67;;
3329;SDS011;1677;49.576;10.990;2023-04-03T13:34:24;3.17;;;2.85;;
3329;SDS011;1677;49.576;10.990;2023-04-03T13:41:50;2.35;;;1.70;;
3329;SDS011;1677;49.576;10.990;2023-04-03T13:46:46;4.80;;;1.70;;
3329;SDS011;1677;49.576;10.990;2023-04-03T13:51:45;4.35;;;1.70;;
3329;SDS011;1677;49.576;10.990;2023-04-03T13:54:23;2.20;;;1.90;;
3329;SDS011;1677;49.576;10.990;2023-04-03T13:56:55;1.75;;;1.60;;
3329;SDS011;1677;49.576;10.990;2023-04-03T13:59:24;2.75;;;2.10;;
3329;SDS011;1677;49.576;10.990;2023-04-03T14:04:31;4.03;;;2.30;;
3329;SDS011;1677;49.576;10.990;2023-04-03T14:07:09;2.25;;;1.95;;
3329;SDS011;1677;49.576;10.990;2023-04-03T14:09:38;1.92;;;1.83;;
3329;SDS011;1677;49.576;10.990;2023-04-03T14:12:05;2.15;;;1.75;;
3329;SDS011;1677;49.576;10.990;2023-04-03T14:14:34;4.50;;;1.80;;
3329;SDS011;1677;49.576;10.990;2023-04-03T14:17:02;2.53;;;1.85;;
3329;SDS011;1677;49.576;10.990;2023-04-03T14:19:37;2.20;;;2.00;;
3329;SDS011;1677;49.576;10.990;2023-04-03T14:22:25;3.90;;;2.03;;
3329;SDS011;1677;49.576;10.990;2023-04-03T14:24:50;2.80;;;2.00;;
3329;SDS011;1677;49.576;10.990;2023-04-03T14:27:19;2.60;;;2.05;;
3329;SDS011;1677;49.576;10.990;2023-04-03T14:29:46;4.65;;;2.25;;
3329;SDS011;1677;49.576;10.990;2023-04-03T14:32:14;1.70;;;1.60;;
3329;SDS011;1677;49.576;10.990;2023-04-03T14:34:40;4.50;;;2.20;;
3329;SDS011;1677;49.576;10.990;2023-04-03T14:37:15;2.45;;;1.80;;
3329;SDS011;1677;49.576;10.990;2023-04-03T14:39:47;3.42;;;2.10;;
3329;SDS011;1677;49.576;10.990;2023-04-03T14:42:14;2.10;;;1.90;;
3329;SDS011;1677;49.576;10.990;2023-04-03T14:44:42;5.88;;;2.45;;
3329;SDS011;1677;49.576;10.990;2023-04-03T14:47:11;5.50;;;2.33;;
3329;SDS011;1677;49.576;10.990;2023-04-03T14:49:38;2.35;;;1.70;;
3329;SDS011;1677;49.576;10.990;2023-04-03T14:52:05;2.65;;;1.73;;
3329;SDS011;1677;49.576;10.990;2023-04-03T14:54:31;2.80;;;2.00;;
3329;SDS011;1677;49.576;10.990;2023-04-03T14:56:57;2.77;;;2.37;;
3329;SDS011;1677;49.576;10.990;2023-04-03T14:59:25;2.95;;;1.85;;
3329;SDS011;1677;49.576;10.990;2023-04-03T15:01:51;4.35;;;2.08;;
3329;SDS011;1677;49.576;10.990;2023-04-03T15:04:18;2.97;;;1.70;;
3329;SDS011;1677;49.576;10.990;2023-04-03T15:06:46;4.22;;;1.70;;
3329;SDS011;1677;49.576;10.990;2023-04-03T15:09:23;2.53;;;2.33;;
3329;SDS011;1677;49.576;10.990;2023-04-03T15:11:51;4.50;;;2.90;;
3329;SDS011;1677;49.576;10.990;2023-04-03T15:14:17;2.60;;;2.08;;
3329;SDS011;1677;49.576;10.990;2023-04-03T15:16:43;2.10;;;2.00;;
3329;SDS011;1677;49.576;10.990;2023-04-03T15:19:09;2.80;;;1.80;;
3329;SDS011;1677;49.576;10.990;2023-04-03T15:21:36;2.55;;;2.28;;
3329;SDS011;1677;49.576;10.990;2023-04-03T15:24:02;3.77;;;2.00;;
3329;SDS011;1677;49.576;10.990;2023-04-03T15:26:27;2.37;;;1.63;;
3329;SDS011;1677;49.576;10.990;2023-04-03T15:28:53;3.15;;;1.60;;
3329;SDS011;1677;49.576;10.990;2023-04-03T15:31:19;2.37;;;1.73;;
3329;SDS011;1677;49.576;10.990;2023-04-03T15:33:45;1.80;;;1.70;;
3329;SDS011;1677;49.576;10.990;2023-04-03T15:36:10;3.33;;;2.27;;
3329;SDS011;1677;49.576;10.990;2023-04-03T15:38:36;2.00;;;1.90;;
3329;SDS011;1677;49.576;10.990;2023-04-03T15:41:03;2.25;;;2.05;;
3329;SDS011;1677;49.576;10.990;2023-04-03T15:43:29;4.07;;;2.60;;
3329;SDS011;1677;49.576;10.990;2023-04-03T15:45:56;5.47;;;2.20;;
3329;SDS011;1677;49.576;10.990;2023-04-03T15:48:23;2.75;;;1.90;;
3329;SDS011;1677;49.576;10.990;2023-04-03T15:50:49;3.07;;;1.83;;
3329;SDS011;1677;49.576;10.990;2023-04-03T15:53:14;2.17;;;1.97;;
3329;SDS011;1677;49.576;10.990;2023-04-03T15:55:40;2.83;;;2.13;;
3329;SDS011;1677;49.576;10.990;2023-04-03T15:58:07;1.92;;;1.63;;
3329;SDS011;1677;49.576;10.990;2023-04-03T16:00:33;3.17;;;1.80;;
3329;SDS011;1677;49.576;10.990;2023-04-03T16:03:02;2.67;;;1.95;;
3329;SDS011;1677;49.576;10.990;2023-04-03T16:05:30;6.00;;;1.90;;
3329;SDS011;1677;49.576;10.990;2023-04-03T16:07:57;3.08;;;2.58;;
3329;SDS011;1677;49.576;10.990;2023-04-03T16:10:24;4.18;;;1.95;;
3329;SDS011;1677;49.576;10.990;2023-04-03T16:12:51;4.20;;;1.88;;
3329;SDS011;1677;49.576;10.990;2023-04-03T16:15:16;2.77;;;1.83;;
3329;SDS011;1677;49.576;10.990;2023-04-03T16:17:42;3.37;;;1.93;;
3329;SDS011;1677;49.576;10.990;2023-04-03T16:20:08;4.77;;;1.97;;
3329;SDS011;1677;49.576;10.990;2023-04-03T16:22:35;2.40;;;2.08;;
3329;SDS011;1677;49.576;10.990;2023-04-03T16:25:01;4.22;;;2.55;;
3329;SDS011;1677;49.576;10.990;2023-04-03T16:27:28;2.05;;;1.67;;
3329;SDS011;1677;49.576;10.990;2023-04-03T16:29:56;4.10;;;1.88;;
3329;SDS011;1677;49.576;10.990;2023-04-03T16:32:22;2.75;;;1.80;;
3329;SDS011;1677;49.576;10.990;2023-04-03T16:34:49;2.70;;;2.00;;
3329;SDS011;1677;49.576;10.990;2023-04-03T16:37:15;1.90;;;1.70;;
3329;SDS011;1677;49.576;10.990;2023-04-03T16:39:41;2.92;;;1.75;;
3329;SDS011;1677;49.576;10.990;2023-04-03T16:42:07;3.80;;;2.00;;
3329;SDS011;1677;49.576;10.990;2023-04-03T16:44:34;1.88;;;1.73;;
3329;SDS011;1677;49.576;10.990;2023-04-03T16:47:00;4.43;;;2.25;;
3329;SDS011;1677;49.576;10.990;2023-04-03T16:49:26;2.67;;;1.70;;
3329;SDS011;1677;49.576;10.990;2023-04-03T16:51:57;2.85;;;2.00;;
3329;SDS011;1677;49.576;10.990;2023-04-03T16:54:22;2.27;;;1.80;;
3329;SDS011;1677;49.576;10.990;2023-04-03T16:56:48;2.20;;;1.50;;
3329;SDS011;1677;49.576;10.990;2023-04-03T16:59:13;1.97;;;1.77;;
3329;SDS011;1677;49.576;10.990;2023-04-03T17:01:39;1.83;;;1.57;;